sensor_id;sensor_type;location;lat;lon;timestamp;P1;durP1;ratioP1;P2;durP2;ratioP2
3769;SDS011;1900;48.890;9.190;2022-09-09T00:01:46;5.30;;;2.30;;
3769;SDS011;1900;48.890;9.190;2022-09-09T00:04:26;3.67;;;2.60;;
3769;SDS011;1900;48.890;9.190;2022-09-09T00:09:35;7.97;;;2.70;;
3769;SDS011;1900;48.890;9.190;2022-09-09T00:12:11;5.50;;;2.83;;
3769;SDS011;1900;48.890;9.190;2022-09-09T00:14:40;9.40;;;2.80;;
3769;SDS011;1900;48.890;9.190;2022-09-09T00:17:16;5.63;;;2.67;;
3769;SDS011;1900;48.890;9.190;2022-09-09T00:20:19;4.27;;;2.70;;
3769;SDS011;1900;48.890;9.190;2022-09-09T00:23:04;8.23;;;3.23;;
3769;SDS011;1900;48.890;9.190;2022-09-09T00:25:43;8.93;;;2.93;;
3769;SDS011;1900;48.890;9.190;2022-09-09T00:28:20;5.10;;;2.00;;
3769;SDS011;1900;48.890;9.190;2022-09-09T00:30:50;6.50;;;3.13;;
3769;SDS011;1900;48.890;9.190;2022-09-09T00:33:25;4.13;;;2.53;;
3769;SDS011;1900;48.890;9.190;2022-09-09T00:35:53;6.27;;;2.90;;
3769;SDS011;1900;48.890;9.190;2022-09-09T00:38:26;6.60;;;2.50;;
3769;SDS011;1900;48.890;9.190;2022-09-09T00:41:19;4.37;;;2.57;;
3769;SDS011;1900;48.890;9.190;2022-09-09T00:43:50;3.40;;;2.07;;
3769;SDS011;1900;48.890;9.190;2022-09-09T00:46:29;3.03;;;2.30;;
3769;SDS011;1900;48.890;9.190;2022-09-09T00:54:02;5.30;;;1.90;;
3769;SDS011;1900;48.890;9.190;2022-09-09T00:56:47;2.30;;;1.73;;
3769;SDS011;1900;48.890;9.190;2022-09-09T00:59:45;4.17;;;2.33;;
3769;SDS011;1900;48.890;9.190;2022-09-09T01:02:27;3.57;;;2.10;;
3769;SDS011;1900;48.890;9.190;2022-09-09T01:04:57;4.57;;;2.33;;
3769;SDS011;1900;48.890;9.190;2022-09-09T01:07:33;10.93;;;2.30;;
3769;SDS011;1900;48.890;9.190;2022-09-09T01:10:00;4.90;;;2.30;;
3769;SDS011;1900;48.890;9.190;2022-09-09T01:12:38;7.20;;;1.93;;
3769;SDS011;1900;48.890;9.190;2022-09-09T01:17:57;6.17;;;2.07;;
3769;SDS011;1900;48.890;9.190;2022-09-09T01:20:36;4.40;;;2.20;;
3769;SDS011;1900;48.890;9.190;2022-09-09T01:23:38;8.00;;;2.97;;
3769;SDS011;1900;48.890;9.190;2022-09-09T01:26:33;6.47;;;1.97;;
3769;SDS011;1900;48.890;9.190;2022-09-09T01:29:09;3.13;;;1.83;;
3769;SDS011;1900;48.890;9.190;2022-09-09T01:31:40;3.50;;;2.03;;
3769;SDS011;1900;48.890;9.190;2022-09-09T01:34:38;4.70;;;2.00;;
3769;SDS011;1900;48.890;9.190;2022-09-09T01:37:06;7.30;;;2.10;;
3769;SDS011;1900;48.890;9.190;2022-09-09T01:39:36;10.07;;;2.60;;
3769;SDS011;1900;48.890;9.190;2022-09-09T01:42:07;5.63;;;2.17;;
3769;SDS011;1900;48.890;9.190;2022-09-09T01:44:35;2.77;;;2.00;;
3769;SDS011;1900;48.890;9.190;2022-09-09T01:47:02;6.60;;;2.90;;
3769;SDS011;1900;48.890;9.190;2022-09-09T01:49:29;4.63;;;1.87;;
3769;SDS011;1900;48.890;9.190;2022-09-09T01:51:55;5.37;;;2.20;;
3769;SDS011;1900;48.890;9.190;2022-09-09T01:54:34;4.20;;;1.93;;
3769;SDS011;1900;48.890;9.190;2022-09-09T02:05:36;5.00;;;1.97;;
3769;SDS011;1900;48.890;9.190;2022-09-09T02:08:20;3.47;;;1.83;;
3769;SDS011;1900;48.890;9.190;2022-09-09T02:11:12;3.27;;;1.67;;
3769;SDS011;1900;48.890;9.190;2022-09-09T02:13:46;5.57;;;1.80;;
3769;SDS011;1900;48.890;9.190;2022-09-09T02:17:16;3.43;;;1.90;;
3769;SDS011;1900;48.890;9.190;2022-09-09T02:19:16;7.10;;;2.43;;
3769;SDS011;1900;48.890;9.190;2022-09-09T02:22:11;3.57;;;1.90;;
3769;SDS011;1900;48.890;9.190;2022-09-09T02:24:39;3.37;;;1.57;;
3769;SDS011;1900;48.890;9.190;2022-09-09T02:27:13;5.03;;;3.07;;
3769;SDS011;1900;48.890;9.190;2022-09-09T02:29:42;5.93;;;1.70;;
3769;SDS011;1900;48.890;9.190;2022-09-09T02:32:13;4.63;;;2.00;;
3769;SDS011;1900;48.890;9.190;2022-09-09T02:34:43;5.50;;;2.33;;
3769;SDS011;1900;48.890;9.190;2022-09-09T02:37:13;2.70;;;2.03;;
3769;SDS011;1900;48.890;9.190;2022-09-09T02:39:46;6.43;;;2.03;;
3769;SDS011;1900;48.890;9.190;2022-09-09T02:42:14;2.70;;;1.90;;
3769;SDS011;1900;48.890;9.190;2022-09-09T02:44:41;4.27;;;2.00;;
3769;SDS011;1900;48.890;9.190;2022-09-09T02:50:15;3.10;;;1.83;;
3769;SDS011;1900;48.890;9.190;2022-09-09T02:52:47;2.67;;;1.50;;
3769;SDS011;1900;48.890;9.190;2022-09-09T02:58:02;2.50;;;1.67;;
3769;SDS011;1900;48.890;9.190;2022-09-09T03:00:52;3.13;;;1.80;;
3769;SDS011;1900;48.890;9.190;2022-09-09T03:03:22;3.70;;;1.60;;
3769;SDS011;1900;48.890;9.190;2022-09-09T03:05:51;5.20;;;2.30;;
3769;SDS011;1900;48.890;9.190;2022-09-09T03:08:17;2.73;;;2.10;;
3769;SDS011;1900;48.890;9.190;2022-09-09T03:10:43;8.90;;;1.90;;
3769;SDS011;1900;48.890;9.190;2022-09-09T03:13:11;2.20;;;2.00;;
3769;SDS011;1900;48.890;9.190;2022-09-09T03:15:40;2.30;;;1.50;;
3769;SDS011;1900;48.890;9.190;2022-09-09T03:18:14;5.83;;;1.43;;
3769;SDS011;1900;48.890;9.190;2022-09-09T03:20:39;2.33;;;1.47;;
3769;SDS011;1900;48.890;9.190;2022-09-09T03:23:07;4.37;;;2.07;;
3769;SDS011;1900;48.890;9.190;2022-09-09T03:25:33;4.70;;;1.83;;
3769;SDS011;1900;48.890;9.190;2022-09-09T03:28:30;6.00;;;1.80;;
3769;SDS011;1900;48.890;9.190;2022-09-09T03:31:00;6.10;;;1.60;;
3769;SDS011;1900;48.890;9.190;2022-09-09T03:33:38;4.83;;;1.77;;
3769;SDS011;1900;48.890;9.190;2022-09-09T03:36:06;5.37;;;2.10;;
3769;SDS011;1900;48.890;9.190;2022-09-09T03:38:33;5.87;;;1.90;;
3769;SDS011;1900;48.890;9.190;2022-09-09T03:40:59;3.53;;;2.40;;
3769;SDS011;1900;48.890;9.190;2022-09-09T03:43:29;3.00;;;1.80;;
3769;SDS011;1900;48.890;9.190;2022-09-09T03:45:58;3.33;;;2.20;;
3769;SDS011;1900;48.890;9.190;2022-09-09T03:48:25;6.80;;;2.60;;
3769;SDS011;1900;48.890;9.190;2022-09-09T03:50:53;6.83;;;1.97;;
3769;SDS011;1900;48.890;9.190;2022-09-09T03:53:23;3.90;;;2.27;;
3769;SDS011;1900;48.890;9.190;2022-09-09T03:55:51;5.97;;;2.13;;
3769;SDS011;1900;48.890;9.190;2022-09-09T03:58:21;5.37;;;2.50;;
3769;SDS011;1900;48.890;9.190;2022-09-09T04:01:02;3.97;;;2.00;;
3769;SDS011;1900;48.890;9.190;2022-09-09T04:03:29;8.50;;;2.70;;
3769;SDS011;1900;48.890;9.190;2022-09-09T04:05:57;3.10;;;1.90;;
3769;SDS011;1900;48.890;9.190;2022-09-09T04:08:26;9.60;;;2.27;;
3769;SDS011;1900;48.890;9.190;2022-09-09T04:10:53;7.63;;;2.20;;
3769;SDS011;1900;48.890;9.190;2022-09-09T04:13:23;4.17;;;2.13;;
3769;SDS011;1900;48.890;9.190;2022-09-09T04:15:53;7.87;;;2.73;;
3769;SDS011;1900;48.890;9.190;2022-09-09T04:18:21;3.23;;;1.93;;
3769;SDS011;1900;48.890;9.190;2022-09-09T04:20:49;3.90;;;2.10;;
3769;SDS011;1900;48.890;9.190;2022-09-09T04:23:17;6.57;;;2.43;;
3769;SDS011;1900;48.890;9.190;2022-09-09T04:25:45;5.17;;;2.50;;
3769;SDS011;1900;48.890;9.190;2022-09-09T04:28:16;7.10;;;2.30;;
3769;SDS011;1900;48.890;9.190;2022-09-09T04:30:43;4.97;;;2.40;;
3769;SDS011;1900;48.890;9.190;2022-09-09T04:33:11;9.30;;;2.80;;
3769;SDS011;1900;48.890;9.190;2022-09-09T04:35:37;3.03;;;2.23;;
3769;SDS011;1900;48.890;9.190;2022-09-09T04:38:04;4.03;;;1.70;;
3769;SDS011;1900;48.890;9.190;2022-09-09T04:40:33;3.93;;;2.33;;
3769;SDS011;1900;48.890;9.190;2022-09-09T04:43:00;3.73;;;2.50;;
3769;SDS011;1900;48.890;9.190;2022-09-09T04:45:30;4.07;;;2.30;;
3769;SDS011;1900;48.890;9.190;2022-09-09T04:47:59;8.07;;;2.37;;
3769;SDS011;1900;48.890;9.190;2022-09-09T04:50:25;7.13;;;2.67;;
3769;SDS011;1900;48.890;9.190;2022-09-09T04:52:59;3.57;;;2.20;;
3769;SDS011;1900;48.890;9.190;2022-09-09T04:55:27;3.77;;;2.13;;
3769;SDS011;1900;48.890;9.190;2022-09-09T04:57:53;7.53;;;2.53;;
3769;SDS011;1900;48.890;9.190;2022-09-09T05:00:19;7.33;;;2.50;;
3769;SDS011;1900;48.890;9.190;2022-09-09T05:02:45;3.50;;;2.20;;
3769;SDS011;1900;48.890;9.190;2022-09-09T05:05:12;5.20;;;2.50;;
3769;SDS011;1900;48.890;9.190;2022-09-09T05:07:40;4.23;;;2.20;;
3769;SDS011;1900;48.890;9.190;2022-09-09T05:10:09;4.83;;;2.83;;
3769;SDS011;1900;48.890;9.190;2022-09-09T05:12:35;3.70;;;2.33;;
3769;SDS011;1900;48.890;9.190;2022-09-09T05:15:01;9.30;;;2.60;;
3769;SDS011;1900;48.890;9.190;2022-09-09T05:17:29;6.23;;;2.20;;
3769;SDS011;1900;48.890;9.190;2022-09-09T05:19:54;9.30;;;2.43;;
3769;SDS011;1900;48.890;9.190;2022-09-09T05:22:20;2.60;;;2.00;;
3769;SDS011;1900;48.890;9.190;2022-09-09T05:24:49;3.83;;;2.20;;
3769;SDS011;1900;48.890;9.190;2022-09-09T05:27:21;6.90;;;2.43;;
3769;SDS011;1900;48.890;9.190;2022-09-09T05:29:47;5.90;;;2.10;;
3769;SDS011;1900;48.890;9.190;2022-09-09T05:32:13;6.50;;;2.73;;
3769;SDS011;1900;48.890;9.190;2022-09-09T05:34:45;3.93;;;2.30;;
3769;SDS011;1900;48.890;9.190;2022-09-09T05:37:20;4.23;;;1.90;;
3769;SDS011;1900;48.890;9.190;2022-09-09T05:39:47;2.43;;;2.00;;
3769;SDS011;1900;48.890;9.190;2022-09-09T05:42:13;4.87;;;2.27;;
3769;SDS011;1900;48.890;9.190;2022-09-09T05:44:39;4.60;;;1.90;;
3769;SDS011;1900;48.890;9.190;2022-09-09T05:47:10;4.40;;;2.13;;
3769;SDS011;1900;48.890;9.190;2022-09-09T05:49:37;5.07;;;2.30;;
3769;SDS011;1900;48.890;9.190;2022-09-09T05:52:05;4.80;;;3.00;;
3769;SDS011;1900;48.890;9.190;2022-09-09T05:54:35;8.43;;;3.67;;
3769;SDS011;1900;48.890;9.190;2022-09-09T05:57:04;2.40;;;2.17;;
3769;SDS011;1900;48.890;9.190;2022-09-09T05:59:34;3.60;;;2.50;;
3769;SDS011;1900;48.890;9.190;2022-09-09T06:02:00;3.23;;;2.30;;
3769;SDS011;1900;48.890;9.190;2022-09-09T06:04:34;7.20;;;2.37;;
3769;SDS011;1900;48.890;9.190;2022-09-09T06:07:04;5.33;;;2.00;;
3769;SDS011;1900;48.890;9.190;2022-09-09T06:09:30;5.20;;;3.07;;
3769;SDS011;1900;48.890;9.190;2022-09-09T06:11:58;4.17;;;2.10;;
3769;SDS011;1900;48.890;9.190;2022-09-09T06:14:24;8.30;;;2.37;;
3769;SDS011;1900;48.890;9.190;2022-09-09T06:16:57;4.97;;;2.00;;
3769;SDS011;1900;48.890;9.190;2022-09-09T06:19:27;10.83;;;2.00;;
3769;SDS011;1900;48.890;9.190;2022-09-09T06:21:57;4.73;;;2.03;;
3769;SDS011;1900;48.890;9.190;2022-09-09T06:24:27;4.00;;;2.23;;
3769;SDS011;1900;48.890;9.190;2022-09-09T06:26:55;4.90;;;1.77;;
3769;SDS011;1900;48.890;9.190;2022-09-09T06:29:26;5.70;;;2.00;;
3769;SDS011;1900;48.890;9.190;2022-09-09T06:31:52;4.30;;;2.10;;
3769;SDS011;1900;48.890;9.190;2022-09-09T06:34:22;4.03;;;1.83;;
3769;SDS011;1900;48.890;9.190;2022-09-09T06:36:56;6.13;;;2.23;;
3769;SDS011;1900;48.890;9.190;2022-09-09T06:39:29;14.80;;;5.60;;
3769;SDS011;1900;48.890;9.190;2022-09-09T06:42:01;10.60;;;3.17;;
3769;SDS011;1900;48.890;9.190;2022-09-09T06:44:56;6.50;;;2.30;;
3769;SDS011;1900;48.890;9.190;2022-09-09T06:47:35;5.63;;;3.00;;
3769;SDS011;1900;48.890;9.190;2022-09-09T06:50:02;7.20;;;2.87;;
3769;SDS011;1900;48.890;9.190;2022-09-09T06:52:33;5.60;;;2.20;;
3769;SDS011;1900;48.890;9.190;2022-09-09T06:54:59;3.77;;;2.23;;
3769;SDS011;1900;48.890;9.190;2022-09-09T06:57:25;4.57;;;2.10;;
3769;SDS011;1900;48.890;9.190;2022-09-09T06:59:51;8.30;;;2.90;;
3769;SDS011;1900;48.890;9.190;2022-09-09T07:02:18;18.73;;;2.83;;
3769;SDS011;1900;48.890;9.190;2022-09-09T07:04:43;8.90;;;2.50;;
3769;SDS011;1900;48.890;9.190;2022-09-09T07:07:09;9.43;;;2.13;;
3769;SDS011;1900;48.890;9.190;2022-09-09T07:09:37;7.17;;;2.70;;
3769;SDS011;1900;48.890;9.190;2022-09-09T07:12:06;3.70;;;2.33;;
3769;SDS011;1900;48.890;9.190;2022-09-09T07:14:33;3.00;;;1.93;;
3769;SDS011;1900;48.890;9.190;2022-09-09T07:17:03;7.77;;;2.00;;
3769;SDS011;1900;48.890;9.190;2022-09-09T07:19:34;7.03;;;2.10;;
3769;SDS011;1900;48.890;9.190;2022-09-09T07:22:03;5.30;;;1.70;;
3769;SDS011;1900;48.890;9.190;2022-09-09T07:24:29;4.13;;;1.80;;
3769;SDS011;1900;48.890;9.190;2022-09-09T07:26:56;2.77;;;1.87;;
3769;SDS011;1900;48.890;9.190;2022-09-09T07:29:22;11.93;;;1.73;;
3769;SDS011;1900;48.890;9.190;2022-09-09T07:31:49;1.67;;;1.40;;
3769;SDS011;1900;48.890;9.190;2022-09-09T07:34:23;5.17;;;1.77;;
3769;SDS011;1900;48.890;9.190;2022-09-09T07:36:50;2.20;;;1.50;;
3769;SDS011;1900;48.890;9.190;2022-09-09T07:39:17;5.00;;;1.83;;
3769;SDS011;1900;48.890;9.190;2022-09-09T07:41:47;4.80;;;2.10;;
3769;SDS011;1900;48.890;9.190;2022-09-09T07:44:19;5.73;;;1.93;;
3769;SDS011;1900;48.890;9.190;2022-09-09T07:46:59;3.63;;;1.50;;
3769;SDS011;1900;48.890;9.190;2022-09-09T07:49:31;3.67;;;2.30;;
3769;SDS011;1900;48.890;9.190;2022-09-09T07:51:57;7.13;;;1.77;;
3769;SDS011;1900;48.890;9.190;2022-09-09T07:54:23;3.30;;;2.10;;
3769;SDS011;1900;48.890;9.190;2022-09-09T07:56:50;5.57;;;1.80;;
3769;SDS011;1900;48.890;9.190;2022-09-09T07:59:19;2.53;;;1.70;;
3769;SDS011;1900;48.890;9.190;2022-09-09T08:01:48;3.83;;;1.80;;
3769;SDS011;1900;48.890;9.190;2022-09-09T08:04:21;3.67;;;1.77;;
3769;SDS011;1900;48.890;9.190;2022-09-09T08:06:54;7.80;;;2.00;;
3769;SDS011;1900;48.890;9.190;2022-09-09T08:09:23;4.70;;;2.10;;
3769;SDS011;1900;48.890;9.190;2022-09-09T08:11:55;3.50;;;2.00;;
3769;SDS011;1900;48.890;9.190;2022-09-09T08:14:22;5.70;;;2.30;;
3769;SDS011;1900;48.890;9.190;2022-09-09T08:16:49;6.70;;;2.37;;
3769;SDS011;1900;48.890;9.190;2022-09-09T08:19:18;2.57;;;1.40;;
3769;SDS011;1900;48.890;9.190;2022-09-09T08:21:45;4.80;;;1.43;;
3769;SDS011;1900;48.890;9.190;2022-09-09T08:24:12;2.53;;;1.70;;
3769;SDS011;1900;48.890;9.190;2022-09-09T08:26:41;5.33;;;1.73;;
3769;SDS011;1900;48.890;9.190;2022-09-09T08:29:10;5.10;;;2.10;;
3769;SDS011;1900;48.890;9.190;2022-09-09T08:31:45;5.60;;;1.90;;
3769;SDS011;1900;48.890;9.190;2022-09-09T08:34:16;3.20;;;1.80;;
3769;SDS011;1900;48.890;9.190;2022-09-09T08:36:47;7.70;;;2.13;;
3769;SDS011;1900;48.890;9.190;2022-09-09T08:39:15;4.70;;;1.90;;
3769;SDS011;1900;48.890;9.190;2022-09-09T08:52:23;2.80;;;1.60;;
3769;SDS011;1900;48.890;9.190;2022-09-09T08:54:55;5.30;;;1.73;;
3769;SDS011;1900;48.890;9.190;2022-09-09T08:57:43;3.57;;;1.53;;
3769;SDS011;1900;48.890;9.190;2022-09-09T09:00:11;4.30;;;1.70;;
3769;SDS011;1900;48.890;9.190;2022-09-09T09:02:49;5.63;;;2.13;;
3769;SDS011;1900;48.890;9.190;2022-09-09T09:05:31;6.40;;;2.33;;
3769;SDS011;1900;48.890;9.190;2022-09-09T09:08:08;5.87;;;2.10;;
3769;SDS011;1900;48.890;9.190;2022-09-09T09:10:54;5.53;;;2.10;;
3769;SDS011;1900;48.890;9.190;2022-09-09T09:16:25;5.20;;;1.60;;
3769;SDS011;1900;48.890;9.190;2022-09-09T09:18:58;5.07;;;1.83;;
3769;SDS011;1900;48.890;9.190;2022-09-09T09:21:43;5.10;;;1.43;;
3769;SDS011;1900;48.890;9.190;2022-09-09T09:24:16;7.20;;;1.80;;
3769;SDS011;1900;48.890;9.190;2022-09-09T09:27:04;5.33;;;1.87;;
3769;SDS011;1900;48.890;9.190;2022-09-09T09:29:42;3.30;;;2.40;;
3769;SDS011;1900;48.890;9.190;2022-09-09T09:32:14;4.07;;;1.83;;
3769;SDS011;1900;48.890;9.190;2022-09-09T09:34:48;7.27;;;2.00;;
3769;SDS011;1900;48.890;9.190;2022-09-09T09:37:42;4.97;;;1.77;;
3769;SDS011;1900;48.890;9.190;2022-09-09T09:40:14;2.60;;;1.43;;
3769;SDS011;1900;48.890;9.190;2022-09-09T09:43:01;4.63;;;2.90;;
3769;SDS011;1900;48.890;9.190;2022-09-09T09:45:29;5.30;;;2.33;;
3769;SDS011;1900;48.890;9.190;2022-09-09T09:48:08;3.50;;;2.57;;
3769;SDS011;1900;48.890;9.190;2022-09-09T09:50:59;4.37;;;1.97;;
3769;SDS011;1900;48.890;9.190;2022-09-09T09:53:26;3.33;;;1.60;;
3769;SDS011;1900;48.890;9.190;2022-09-09T09:58:25;3.50;;;1.40;;
3769;SDS011;1900;48.890;9.190;2022-09-09T10:00:56;2.60;;;1.60;;
3769;SDS011;1900;48.890;9.190;2022-09-09T10:03:27;2.67;;;1.20;;
3769;SDS011;1900;48.890;9.190;2022-09-09T10:06:08;6.30;;;1.20;;
3769;SDS011;1900;48.890;9.190;2022-09-09T10:08:43;4.27;;;1.80;;
3769;SDS011;1900;48.890;9.190;2022-09-09T10:19:33;3.37;;;1.80;;
3769;SDS011;1900;48.890;9.190;2022-09-09T10:24:48;4.03;;;1.50;;
3769;SDS011;1900;48.890;9.190;2022-09-09T10:27:54;2.97;;;1.40;;
3769;SDS011;1900;48.890;9.190;2022-09-09T10:33:21;3.80;;;1.50;;
3769;SDS011;1900;48.890;9.190;2022-09-09T10:38:37;2.27;;;1.37;;
3769;SDS011;1900;48.890;9.190;2022-09-09T10:41:19;2.77;;;1.50;;
3769;SDS011;1900;48.890;9.190;2022-09-09T10:55:19;2.27;;;1.33;;
3769;SDS011;1900;48.890;9.190;2022-09-09T10:57:46;2.37;;;1.20;;
3769;SDS011;1900;48.890;9.190;2022-09-09T11:00:20;4.37;;;1.40;;
3769;SDS011;1900;48.890;9.190;2022-09-09T11:02:59;4.83;;;1.87;;
3769;SDS011;1900;48.890;9.190;2022-09-09T11:07:59;3.50;;;2.20;;
3769;SDS011;1900;48.890;9.190;2022-09-09T11:12:57;7.97;;;2.70;;
3769;SDS011;1900;48.890;9.190;2022-09-09T11:15:39;4.00;;;1.60;;
3769;SDS011;1900;48.890;9.190;2022-09-09T11:18:18;9.57;;;2.10;;
3769;SDS011;1900;48.890;9.190;2022-09-09T11:20:47;11.23;;;2.10;;
3769;SDS011;1900;48.890;9.190;2022-09-09T11:23:20;3.83;;;1.37;;
3769;SDS011;1900;48.890;9.190;2022-09-09T11:25:55;10.57;;;2.70;;
3769;SDS011;1900;48.890;9.190;2022-09-09T11:34:09;10.60;;;1.93;;
3769;SDS011;1900;48.890;9.190;2022-09-09T11:36:50;2.53;;;1.43;;
3769;SDS011;1900;48.890;9.190;2022-09-09T11:42:05;3.03;;;1.50;;
3769;SDS011;1900;48.890;9.190;2022-09-09T11:44:32;6.63;;;1.53;;
3769;SDS011;1900;48.890;9.190;2022-09-09T11:46:58;3.00;;;1.20;;
3769;SDS011;1900;48.890;9.190;2022-09-09T11:49:28;2.43;;;1.23;;
3769;SDS011;1900;48.890;9.190;2022-09-09T11:58:04;3.37;;;1.33;;
3769;SDS011;1900;48.890;9.190;2022-09-09T12:11:52;5.33;;;3.23;;
3769;SDS011;1900;48.890;9.190;2022-09-09T12:14:22;2.83;;;1.80;;
3769;SDS011;1900;48.890;9.190;2022-09-09T12:19:35;4.47;;;1.20;;
3769;SDS011;1900;48.890;9.190;2022-09-09T12:22:06;0.97;;;0.87;;
3769;SDS011;1900;48.890;9.190;2022-09-09T12:24:51;4.13;;;1.20;;
3769;SDS011;1900;48.890;9.190;2022-09-09T12:27:34;2.67;;;1.10;;
3769;SDS011;1900;48.890;9.190;2022-09-09T12:30:11;1.67;;;1.00;;
3769;SDS011;1900;48.890;9.190;2022-09-09T12:32:39;2.50;;;1.10;;
3769;SDS011;1900;48.890;9.190;2022-09-09T12:35:12;2.23;;;1.37;;
3769;SDS011;1900;48.890;9.190;2022-09-09T12:42:51;8.63;;;1.47;;
3769;SDS011;1900;48.890;9.190;2022-09-09T12:45:21;2.10;;;1.20;;
3769;SDS011;1900;48.890;9.190;2022-09-09T12:48:02;3.50;;;1.10;;
3769;SDS011;1900;48.890;9.190;2022-09-09T12:50:46;1.93;;;1.10;;
3769;SDS011;1900;48.890;9.190;2022-09-09T12:53:29;1.40;;;1.13;;
3769;SDS011;1900;48.890;9.190;2022-09-09T12:56:06;4.10;;;1.37;;
3769;SDS011;1900;48.890;9.190;2022-09-09T12:58:33;2.53;;;1.23;;
3769;SDS011;1900;48.890;9.190;2022-09-09T13:01:01;2.00;;;1.20;;
3769;SDS011;1900;48.890;9.190;2022-09-09T13:03:30;1.87;;;1.60;;
3769;SDS011;1900;48.890;9.190;2022-09-09T13:06:10;2.73;;;1.27;;
3769;SDS011;1900;48.890;9.190;2022-09-09T13:08:38;7.30;;;1.47;;
3769;SDS011;1900;48.890;9.190;2022-09-09T13:11:06;3.83;;;1.30;;
3769;SDS011;1900;48.890;9.190;2022-09-09T13:13:38;3.00;;;1.53;;
3769;SDS011;1900;48.890;9.190;2022-09-09T13:16:15;3.47;;;1.40;;
3769;SDS011;1900;48.890;9.190;2022-09-09T13:18:48;2.03;;;1.40;;
3769;SDS011;1900;48.890;9.190;2022-09-09T13:21:14;3.27;;;1.30;;
3769;SDS011;1900;48.890;9.190;2022-09-09T13:23:40;2.13;;;1.00;;
3769;SDS011;1900;48.890;9.190;2022-09-09T13:26:18;1.27;;;1.00;;
3769;SDS011;1900;48.890;9.190;2022-09-09T13:28:47;3.10;;;0.97;;
3769;SDS011;1900;48.890;9.190;2022-09-09T13:31:24;1.57;;;0.93;;
3769;SDS011;1900;48.890;9.190;2022-09-09T13:33:53;2.00;;;1.27;;
3769;SDS011;1900;48.890;9.190;2022-09-09T13:36:29;2.80;;;1.40;;
3769;SDS011;1900;48.890;9.190;2022-09-09T13:38:58;2.60;;;1.40;;
3769;SDS011;1900;48.890;9.190;2022-09-09T13:41:29;2.90;;;1.30;;
3769;SDS011;1900;48.890;9.190;2022-09-09T13:44:27;4.10;;;1.10;;
3769;SDS011;1900;48.890;9.190;2022-09-09T13:47:00;2.03;;;1.20;;
3769;SDS011;1900;48.890;9.190;2022-09-09T13:49:30;1.40;;;0.90;;
3769;SDS011;1900;48.890;9.190;2022-09-09T13:52:31;1.33;;;0.90;;
3769;SDS011;1900;48.890;9.190;2022-09-09T13:54:52;2.07;;;1.23;;
3769;SDS011;1900;48.890;9.190;2022-09-09T13:57:23;2.70;;;0.90;;
3769;SDS011;1900;48.890;9.190;2022-09-09T13:59:51;1.80;;;0.87;;
3769;SDS011;1900;48.890;9.190;2022-09-09T14:02:20;1.77;;;1.10;;
3769;SDS011;1900;48.890;9.190;2022-09-09T14:04:48;1.57;;;0.83;;
3769;SDS011;1900;48.890;9.190;2022-09-09T14:07:16;3.90;;;1.10;;
3769;SDS011;1900;48.890;9.190;2022-09-09T14:09:43;1.17;;;0.70;;
3769;SDS011;1900;48.890;9.190;2022-09-09T14:12:13;1.60;;;1.10;;
3769;SDS011;1900;48.890;9.190;2022-09-09T14:14:40;1.30;;;1.00;;
3769;SDS011;1900;48.890;9.190;2022-09-09T14:17:07;2.17;;;1.20;;
3769;SDS011;1900;48.890;9.190;2022-09-09T14:19:33;4.13;;;1.00;;
3769;SDS011;1900;48.890;9.190;2022-09-09T14:21:59;7.10;;;1.00;;
3769;SDS011;1900;48.890;9.190;2022-09-09T14:24:26;3.33;;;1.07;;
3769;SDS011;1900;48.890;9.190;2022-09-09T14:26:53;1.20;;;1.10;;
3769;SDS011;1900;48.890;9.190;2022-09-09T14:29:19;2.90;;;1.20;;
3769;SDS011;1900;48.890;9.190;2022-09-09T14:31:45;3.20;;;1.40;;
3769;SDS011;1900;48.890;9.190;2022-09-09T14:34:11;2.90;;;1.20;;
3769;SDS011;1900;48.890;9.190;2022-09-09T14:36:37;1.87;;;1.30;;
3769;SDS011;1900;48.890;9.190;2022-09-09T14:39:03;1.70;;;1.20;;
3769;SDS011;1900;48.890;9.190;2022-09-09T14:41:29;16.60;;;2.10;;
3769;SDS011;1900;48.890;9.190;2022-09-09T14:43:55;1.90;;;1.00;;
3769;SDS011;1900;48.890;9.190;2022-09-09T14:46:22;3.87;;;1.30;;
3769;SDS011;1900;48.890;9.190;2022-09-09T14:48:48;2.43;;;1.30;;
3769;SDS011;1900;48.890;9.190;2022-09-09T14:51:15;2.33;;;1.20;;
3769;SDS011;1900;48.890;9.190;2022-09-09T14:53:43;3.43;;;1.30;;
3769;SDS011;1900;48.890;9.190;2022-09-09T14:56:13;2.27;;;1.13;;
3769;SDS011;1900;48.890;9.190;2022-09-09T14:58:41;1.50;;;1.07;;
3769;SDS011;1900;48.890;9.190;2022-09-09T15:01:17;2.20;;;1.00;;
3769;SDS011;1900;48.890;9.190;2022-09-09T15:03:48;3.13;;;1.17;;
3769;SDS011;1900;48.890;9.190;2022-09-09T15:06:16;2.40;;;0.97;;
3769;SDS011;1900;48.890;9.190;2022-09-09T15:08:43;2.60;;;1.10;;
3769;SDS011;1900;48.890;9.190;2022-09-09T15:11:10;0.80;;;0.80;;
3769;SDS011;1900;48.890;9.190;2022-09-09T15:13:37;2.20;;;1.03;;
3769;SDS011;1900;48.890;9.190;2022-09-09T15:16:15;1.57;;;0.80;;
3769;SDS011;1900;48.890;9.190;2022-09-09T15:18:42;1.60;;;1.00;;
3769;SDS011;1900;48.890;9.190;2022-09-09T15:21:10;4.00;;;1.40;;
3769;SDS011;1900;48.890;9.190;2022-09-09T15:23:37;1.30;;;1.20;;
3769;SDS011;1900;48.890;9.190;2022-09-09T15:26:03;2.50;;;1.10;;
3769;SDS011;1900;48.890;9.190;2022-09-09T15:28:31;2.90;;;1.13;;
3769;SDS011;1900;48.890;9.190;2022-09-09T15:31:04;1.70;;;0.90;;
3769;SDS011;1900;48.890;9.190;2022-09-09T15:33:52;2.27;;;1.30;;
3769;SDS011;1900;48.890;9.190;2022-09-09T15:38:54;2.67;;;1.43;;
3769;SDS011;1900;48.890;9.190;2022-09-09T15:41:21;2.10;;;1.00;;
3769;SDS011;1900;48.890;9.190;2022-09-09T15:43:48;2.53;;;0.97;;
3769;SDS011;1900;48.890;9.190;2022-09-09T15:46:34;1.67;;;1.10;;
3769;SDS011;1900;48.890;9.190;2022-09-09T15:51:31;1.37;;;0.90;;
3769;SDS011;1900;48.890;9.190;2022-09-09T15:53:58;1.63;;;1.00;;
3769;SDS011;1900;48.890;9.190;2022-09-09T15:56:25;4.93;;;1.47;;
3769;SDS011;1900;48.890;9.190;2022-09-09T15:58:52;3.00;;;1.13;;
3769;SDS011;1900;48.890;9.190;2022-09-09T16:01:19;1.33;;;1.10;;
3769;SDS011;1900;48.890;9.190;2022-09-09T16:03:45;2.10;;;1.10;;
3769;SDS011;1900;48.890;9.190;2022-09-09T16:06:12;2.50;;;1.93;;
3769;SDS011;1900;48.890;9.190;2022-09-09T16:08:40;3.57;;;1.70;;
3769;SDS011;1900;48.890;9.190;2022-09-09T16:11:08;5.37;;;1.10;;
3769;SDS011;1900;48.890;9.190;2022-09-09T16:13:42;4.33;;;1.23;;
3769;SDS011;1900;48.890;9.190;2022-09-09T16:16:12;2.20;;;1.07;;
3769;SDS011;1900;48.890;9.190;2022-09-09T16:18:40;2.40;;;1.20;;
3769;SDS011;1900;48.890;9.190;2022-09-09T16:21:28;1.40;;;1.10;;
3769;SDS011;1900;48.890;9.190;2022-09-09T16:23:56;2.93;;;1.53;;
3769;SDS011;1900;48.890;9.190;2022-09-09T16:26:24;1.90;;;1.30;;
3769;SDS011;1900;48.890;9.190;2022-09-09T16:28:51;3.63;;;1.00;;
3769;SDS011;1900;48.890;9.190;2022-09-09T16:31:20;2.77;;;1.30;;
3769;SDS011;1900;48.890;9.190;2022-09-09T16:33:47;5.87;;;1.20;;
3769;SDS011;1900;48.890;9.190;2022-09-09T16:36:17;4.93;;;1.53;;
3769;SDS011;1900;48.890;9.190;2022-09-09T16:38:44;1.87;;;1.33;;
3769;SDS011;1900;48.890;9.190;2022-09-09T16:41:10;1.80;;;1.03;;
3769;SDS011;1900;48.890;9.190;2022-09-09T16:43:37;2.07;;;1.00;;
3769;SDS011;1900;48.890;9.190;2022-09-09T16:48:41;1.80;;;1.17;;
3769;SDS011;1900;48.890;9.190;2022-09-09T16:51:11;2.20;;;1.00;;
3769;SDS011;1900;48.890;9.190;2022-09-09T16:53:39;3.07;;;1.20;;
3769;SDS011;1900;48.890;9.190;2022-09-09T16:56:08;1.63;;;1.30;;
3769;SDS011;1900;48.890;9.190;2022-09-09T16:58:35;1.60;;;1.33;;
3769;SDS011;1900;48.890;9.190;2022-09-09T17:01:02;1.43;;;1.00;;
3769;SDS011;1900;48.890;9.190;2022-09-09T17:03:29;2.17;;;1.27;;
3769;SDS011;1900;48.890;9.190;2022-09-09T17:05:56;1.10;;;1.00;;
3769;SDS011;1900;48.890;9.190;2022-09-09T17:08:23;1.33;;;0.93;;
3769;SDS011;1900;48.890;9.190;2022-09-09T17:10:49;2.10;;;1.07;;
3769;SDS011;1900;48.890;9.190;2022-09-09T17:13:15;1.90;;;0.87;;
3769;SDS011;1900;48.890;9.190;2022-09-09T17:15:43;2.00;;;1.17;;
3769;SDS011;1900;48.890;9.190;2022-09-09T17:18:09;2.30;;;1.60;;
3769;SDS011;1900;48.890;9.190;2022-09-09T17:20:39;1.77;;;1.40;;
3769;SDS011;1900;48.890;9.190;2022-09-09T17:23:06;2.00;;;1.40;;
3769;SDS011;1900;48.890;9.190;2022-09-09T17:25:34;1.97;;;1.13;;
3769;SDS011;1900;48.890;9.190;2022-09-09T17:28:00;2.67;;;1.10;;
3769;SDS011;1900;48.890;9.190;2022-09-09T17:30:29;1.77;;;0.80;;
3769;SDS011;1900;48.890;9.190;2022-09-09T17:32:59;4.70;;;0.90;;
3769;SDS011;1900;48.890;9.190;2022-09-09T17:35:25;2.10;;;1.07;;
3769;SDS011;1900;48.890;9.190;2022-09-09T17:37:55;1.90;;;1.20;;